Time;durP1;ratioP1;P1;durP2;ratioP2;P2;SDS_P1;SDS_P2;PMS_P1;PMS_P2;Temp;Humidity;BMP_temperature;BMP_pressure;BME280_temperature;BME280_humidity;BME280_pressure;Samples;Min_cycle;Max_cycle;Signal;HPM_P1;HPM_P2
2021/12/12 00:02:49;;;;;;;;;19.50;15.00;;;;;10.04;65.63;101821.34;5025957;28;45303;-67
2021/12/12 00:05:20;;;;;;;;;18.50;15.75;;;;;10.03;65.96;101829.28;5001791;28;45572;-68
2021/12/12 00:07:46;;;;;;;;;20.00;14.00;;;;;9.78;66.34;101773.03;4995961;28;45738;-65
2021/12/12 00:10:18;;;;;;;;;26.00;17.50;;;;;10.00;66.50;101808.72;5001491;28;45555;-67
2021/12/12 00:12:47;;;;;;;;;27.25;22.00;;;;;10.01;67.29;101804.28;5004868;28;45420;-67
2021/12/12 00:15:15;;;;;;;;;16.00;14.50;;;;;9.70;66.62;101754.81;5004169;28;45269;-65
2021/12/12 00:17:40;;;;;;;;;22.50;16.00;;;;;9.97;67.69;101800.56;5018553;28;47130;-66
2021/12/12 00:20:09;;;;;;;;;20.75;19.00;;;;;9.90;68.45;101802.03;5018860;28;45228;-65
2021/12/12 00:22:34;;;;;;;;;27.25;25.75;;;;;9.88;68.07;101798.38;5018213;28;45330;-68
2021/12/12 00:25:00;;;;;;;;;22.00;19.75;;;;;9.84;68.16;101788.41;5022501;28;45366;-65
2021/12/12 00:27:25;;;;;;;;;9.50;9.50;;;;;9.91;68.27;101789.59;5020389;28;46146;-66
2021/12/12 00:29:52;;;;;;;;;26.50;23.50;;;;;9.91;68.83;101793.16;5019211;28;45237;-67
2021/12/12 00:32:19;;;;;;;;;18.75;15.00;;;;;9.91;68.46;101790.50;5022273;28;45416;-68
2021/12/12 00:34:52;;;;;;;;;19.50;18.00;;;;;9.86;69.67;101796.47;5014306;28;45440;-67
2021/12/12 00:37:18;;;;;;;;;2.00;2.00;;;;;9.66;69.39;101772.44;5015328;28;46391;-66
2021/12/12 00:39:50;;;;;;;;;22.25;19.25;;;;;9.75;69.73;101791.56;5012340;28;45409;-65
2021/12/12 00:42:19;;;;;;;;;24.50;20.00;;;;;9.72;69.73;101796.75;5008439;28;45377;-67
2021/12/12 00:44:49;;;;;;;;;18.25;14.25;;;;;9.67;70.81;101790.28;5014468;28;45570;-65
2021/12/12 00:47:15;;;;;;;;;19.50;16.50;;;;;9.56;71.08;101763.09;5025373;28;45376;-67
2021/12/12 00:49:42;;;;;;;;;27.75;22.25;;;;;9.72;70.47;101785.19;5012951;28;45318;-67
2021/12/12 00:52:10;;;;;;;;;26.50;20.75;;;;;9.75;71.31;101790.63;5014080;28;45320;-66
2021/12/12 00:54:37;;;;;;;;;20.25;17.50;;;;;9.72;71.13;101790.50;5012948;28;45515;-65
2021/12/12 00:57:07;;;;;;;;;19.25;15.00;;;;;9.68;71.27;101792.09;5013892;28;46097;-66
2021/12/12 00:59:34;;;;;;;;;17.50;13.50;;;;;9.64;71.30;101786.56;5029574;28;45036;-67
2021/12/12 01:02:00;;;;;;;;;17.00;15.75;;;;;9.51;71.53;101759.31;5032153;28;45262;-66
2021/12/12 01:04:33;;;;;;;;;18.00;17.25;;;;;9.46;71.05;101751.94;5032184;28;45095;-67
2021/12/12 01:07:04;;;;;;;;;27.75;22.25;;;;;9.64;71.60;101779.47;5030498;28;46315;-67
2021/12/12 01:09:35;;;;;;;;;13.00;12.00;;;;;9.60;71.19;101788.16;5031468;28;45052;-66
2021/12/12 01:12:06;;;;;;;;;23.25;17.00;;;;;9.57;71.84;101783.59;5031056;28;45045;-66
2021/12/12 01:14:37;;;;;;;;;13.75;12.25;;;;;9.61;71.51;101784.66;5032110;28;45094;-67
2021/12/12 01:17:02;;;;;;;;;19.25;14.00;;;;;9.62;72.16;101789.16;5031346;28;45231;-67
2021/12/12 01:19:38;;;;;;;;;20.50;15.00;;;;;9.64;71.77;101789.25;5031174;28;44984;-66
2021/12/12 01:22:11;;;;;;;;;21.75;14.25;;;;;9.47;71.99;101749.34;5031696;28;45119;-66
2021/12/12 01:24:43;;;;;;;;;17.50;14.50;;;;;9.66;71.48;101779.53;5032177;28;45114;-66
2021/12/12 01:27:09;;;;;;;;;11.25;10.75;;;;;9.67;72.39;101789.34;5027646;28;45261;-66
2021/12/12 01:29:35;;;;;;;;;10.75;9.25;;;;;9.53;71.26;101767.38;5030489;28;45064;-66
2021/12/12 01:32:03;;;;;;;;;15.75;12.50;;;;;9.67;71.83;101784.03;5031593;28;45040;-68
2021/12/12 01:34:31;;;;;;;;;6.75;6.75;;;;;9.68;71.72;101784.09;5032052;28;45133;-67
2021/12/12 01:40:23;;;;;;;;;10.00;9.50;;;;;9.65;72.01;101786.66;5031698;28;44986;-66
2021/12/12 01:43:09;;;;;;;;;13.50;12.75;;;;;9.73;72.66;101801.25;5030709;28;45128;-67
2021/12/12 01:45:48;;;;;;;;;18.50;12.75;;;;;9.60;72.16;101777.47;5030532;28;45158;-66
2021/12/12 01:48:23;;;;;;;;;13.00;13.00;;;;;9.74;71.94;101800.41;5029762;28;46178;-66
2021/12/12 01:50:52;;;;;;;;;15.25;13.00;;;;;9.68;72.27;101786.75;5027934;28;45095;-66
2021/12/12 01:53:22;;;;;;;;;13.50;10.25;;;;;9.78;72.39;101807.72;5030727;28;45031;-66
2021/12/12 01:55:56;;;;;;;;;12.75;11.50;;;;;9.66;72.09;101774.22;5029783;28;44686;-65
2021/12/12 01:58:24;;;;;;;;;14.50;12.50;;;;;9.71;71.96;101797.56;5030691;28;45255;-66
2021/12/12 02:01:01;;;;;;;;;11.25;11.25;;;;;9.73;72.93;101805.66;5031834;28;45064;-67
2021/12/12 02:03:30;;;;;;;;;10.50;10.25;;;;;9.75;72.82;101811.97;5031279;28;45127;-66
2021/12/12 02:06:01;;;;;;;;;11.25;11.00;;;;;9.74;72.77;101813.75;5031942;28;45146;-65
2021/12/12 02:08:29;;;;;;;;;10.25;9.25;;;;;9.58;72.81;101776.50;5011811;28;45621;-66
2021/12/12 02:11:00;;;;;;;;;13.75;11.75;;;;;9.78;72.40;101812.13;5013308;28;45287;-66
2021/12/12 02:13:27;;;;;;;;;8.75;8.00;;;;;9.74;72.97;101816.41;5013184;28;45252;-67
2021/12/12 02:15:56;;;;;;;;;9.00;9.00;;;;;9.66;72.40;101792.88;5014122;28;45630;-67
2021/12/12 02:18:28;;;;;;;;;13.25;11.50;;;;;9.82;72.52;101821.22;5014221;28;45535;-65
2021/12/12 02:21:11;;;;;;;;;17.75;13.50;;;;;9.80;72.85;101820.19;5016840;28;45387;-67
2021/12/12 02:24:19;;;;;;;;;19.50;13.25;;;;;9.83;72.74;101823.03;5016491;28;45539;-66
2021/12/12 02:35:20;;;;;;;;;10.75;10.75;;;;;9.86;72.29;101828.50;5012531;28;45505;-68
2021/12/12 02:37:47;;;;;;;;;12.75;10.00;;;;;9.62;71.92;101799.84;5017228;28;45653;-68
2021/12/12 02:40:18;;;;;;;;;11.00;11.00;;;;;9.91;72.66;101833.19;5018558;28;46296;-68
2021/12/12 02:42:44;;;;;;;;;11.00;11.00;;;;;9.70;72.01;101790.44;5017476;28;47795;-66
2021/12/12 02:45:11;;;;;;;;;11.25;8.75;;;;;9.85;72.70;101807.97;5020708;28;45478;-68
2021/12/12 02:47:38;;;;;;;;;8.25;8.25;;;;;9.95;72.69;101829.84;5019179;28;45266;-68
2021/12/12 02:50:19;;;;;;;;;16.00;13.00;;;;;9.86;72.70;101817.81;5017563;28;45626;-69
2021/12/12 02:52:49;;;;;;;;;9.75;8.75;;;;;10.01;72.15;101839.88;5017054;28;45291;-70
2021/12/12 02:55:22;;;;;;;;;13.00;11.75;;;;;9.88;72.28;101830.41;5015157;28;45601;-69
2021/12/12 02:57:50;;;;;;;;;10.25;10.00;;;;;9.95;72.58;101835.19;5016655;28;45395;-70
2021/12/12 03:00:18;;;;;;;;;10.25;7.50;;;;;9.81;73.00;101816.69;5019536;28;46231;-68
2021/12/12 03:02:46;;;;;;;;;9.00;6.50;;;;;9.99;73.00;101846.91;5022665;28;45531;-68
2021/12/12 03:05:15;;;;;;;;;10.50;9.75;;;;;9.89;73.12;101818.88;5016904;28;45443;-68
2021/12/12 03:07:43;;;;;;;;;6.50;6.50;;;;;9.67;72.92;101787.63;5017116;28;45420;-67
2021/12/12 03:10:13;;;;;;;;;9.75;9.75;;;;;9.98;73.34;101844.16;5016375;28;46050;-67
2021/12/12 03:12:39;;;;;;;;;9.75;9.75;;;;;10.04;72.97;101848.03;5016295;28;45382;-68
2021/12/12 03:15:27;;;;;;;;;9.50;6.50;;;;;10.07;73.19;101844.59;5013301;28;45574;-67
2021/12/12 03:17:55;;;;;;;;;6.75;6.75;;;;;10.10;72.52;101853.66;5043356;28;44959;-69
2021/12/12 03:20:26;;;;;;;;;7.75;7.75;;;;;10.05;72.29;101840.97;5031968;28;45398;-67
2021/12/12 03:22:58;;;;;;;;;8.75;8.75;;;;;10.12;72.85;101845.72;5030260;28;45471;-69
2021/12/12 03:25:23;;;;;;;;;12.75;9.50;;;;;10.13;72.68;101848.47;5033893;28;45033;-69
2021/12/12 03:27:51;;;;;;;;;11.75;9.00;;;;;9.93;72.03;101810.19;5033045;28;45139;-69
2021/12/12 03:30:18;;;;;;;;;21.00;19.50;;;;;10.18;72.26;101847.75;5029824;28;45669;-68
2021/12/12 03:32:43;;;;;;;;;10.00;10.00;;;;;10.02;72.68;101815.03;5032952;28;45164;-68
2021/12/12 03:35:09;;;;;;;;;12.25;5.00;;;;;10.12;72.50;101843.97;5030547;28;45513;-68
2021/12/12 03:37:36;;;;;;;;;11.00;9.00;;;;;10.16;72.50;101845.00;5032960;28;45124;-67
2021/12/12 03:40:09;;;;;;;;;8.75;6.25;;;;;10.12;72.43;101835.94;5030917;28;45202;-68
2021/12/12 03:42:35;;;;;;;;;6.75;6.75;;;;;8.85;72.58;101598.91;5033577;28;45054;-69
2021/12/12 03:45:03;;;;;;;;;10.00;8.00;;;;;10.21;72.17;101838.13;5033611;28;45314;-66
2021/12/12 03:47:32;;;;;;;;;7.25;7.25;;;;;10.23;72.31;101848.88;5032453;28;45200;-68
2021/12/12 03:50:04;;;;;;;;;9.00;8.50;;;;;10.25;72.05;101849.88;5033492;28;44979;-68
2021/12/12 03:52:30;;;;;;;;;9.75;8.25;;;;;10.28;72.27;101848.25;5028800;28;45414;-66
2021/12/12 03:55:01;;;;;;;;;10.00;7.00;;;;;10.30;72.34;101842.97;5020453;28;45452;-67
2021/12/12 03:57:29;;;;;;;;;11.75;6.75;;;;;10.26;72.20;101827.66;5029493;28;45200;-69
2021/12/12 03:59:55;;;;;;;;;11.75;10.00;;;;;10.35;72.25;101838.78;5024700;28;46127;-66
2021/12/12 04:02:21;;;;;;;;;3.50;3.50;;;;;10.20;72.23;101824.72;5023015;28;45536;-67
2021/12/12 04:04:48;;;;;;;;;9.25;5.50;;;;;10.21;72.42;101818.53;5021157;28;45359;-66
2021/12/12 04:07:21;;;;;;;;;7.50;6.50;;;;;10.33;71.88;101838.72;5031142;28;45474;-68
2021/12/12 04:09:47;;;;;;;;;12.25;7.00;;;;;10.30;72.08;101834.97;5023340;28;45661;-68
2021/12/12 04:12:14;;;;;;;;;2.00;2.00;;;;;10.32;71.97;101847.56;5021262;28;45361;-68
2021/12/12 04:14:42;;;;;;;;;8.00;7.00;;;;;10.28;72.44;101847.34;5026941;28;45469;-68
2021/12/12 04:17:13;;;;;;;;;6.50;6.50;;;;;10.26;72.64;101846.34;5015673;28;45531;-69
2021/12/12 04:19:43;;;;;;;;;6.00;6.00;;;;;10.27;72.56;101853.53;5015136;28;46578;-66
2021/12/12 04:22:09;;;;;;;;;10.50;9.00;;;;;10.28;72.86;101853.59;5014933;28;46197;-69
2021/12/12 04:24:38;;;;;;;;;11.25;8.75;;;;;10.30;72.26;101854.56;5019827;28;45392;-66
2021/12/12 04:27:05;;;;;;;;;11.50;9.00;;;;;10.30;72.13;101861.69;5016213;28;45463;-67
2021/12/12 04:29:36;;;;;;;;;10.00;8.50;;;;;10.02;72.24;101817.69;5015336;28;45537;-65
2021/12/12 04:32:13;;;;;;;;;16.50;10.75;;;;;10.17;72.31;101846.84;5015311;28;45670;-69
2021/12/12 04:34:43;;;;;;;;;10.25;7.00;;;;;10.15;72.41;101836.09;5018051;28;45404;-65
2021/12/12 04:37:09;;;;;;;;;12.50;9.00;;;;;10.36;72.81;101871.75;5016278;28;45544;-69
2021/12/12 04:39:39;;;;;;;;;12.75;9.25;;;;;10.37;72.28;101871.81;5017070;28;45461;-68
2021/12/12 04:42:13;;;;;;;;;14.50;10.50;;;;;10.29;72.43;101858.06;5030355;28;45362;-69
2021/12/12 04:44:40;;;;;;;;;7.50;7.50;;;;;10.36;73.09;101871.75;5021938;28;45300;-69
2021/12/12 04:50:23;;;;;;;;;8.75;8.75;;;;;10.32;72.67;101873.38;5017632;28;46094;-67
2021/12/12 04:53:00;;;;;;;;;12.50;9.25;;;;;10.35;72.55;101872.63;5025015;28;45426;-68
2021/12/12 04:55:32;;;;;;;;;10.00;8.75;;;;;10.38;72.78;101876.34;5028321;28;45389;-68
2021/12/12 04:58:08;;;;;;;;;12.00;9.00;;;;;10.30;72.38;101864.34;5032470;28;45098;-69
2021/12/12 05:00:40;;;;;;;;;10.75;10.00;;;;;10.44;72.45;101879.28;5015098;28;45604;-68
2021/12/12 05:03:22;;;;;;;;;14.25;11.75;;;;;10.44;72.45;101884.63;5026979;28;45509;-66
2021/12/12 05:05:54;;;;;;;;;10.25;9.25;;;;;10.37;72.15;101869.16;5030571;28;44918;-68
2021/12/12 05:08:46;;;;;;;;;16.75;9.25;;;;;10.47;72.44;101886.50;5030833;28;45133;-68
2021/12/12 05:11:20;;;;;;;;;9.00;9.00;;;;;10.49;72.30;101887.50;5028791;28;45160;-67
2021/12/12 05:13:55;;;;;;;;;16.75;12.25;;;;;10.51;72.56;101892.06;5029335;28;45559;-68
2021/12/12 05:16:38;;;;;;;;;10.50;8.50;;;;;10.55;71.84;101890.44;5028772;28;45305;-67
2021/12/12 05:19:13;;;;;;;;;13.50;11.50;;;;;10.56;72.58;101891.34;5027242;28;45422;-68
2021/12/12 05:21:45;;;;;;;;;12.00;10.50;;;;;10.49;72.29;101880.41;5029008;28;45799;-69
2021/12/12 05:24:12;;;;;;;;;12.25;10.50;;;;;10.54;72.38;101899.28;5029386;28;44989;-67
2021/12/12 05:26:49;;;;;;;;;13.25;12.25;;;;;10.55;72.42;101886.88;5026582;28;45327;-67
2021/12/12 05:29:31;;;;;;;;;10.75;10.00;;;;;10.45;72.13;101869.50;5025179;28;45413;-67
2021/12/12 05:32:00;;;;;;;;;12.00;9.25;;;;;10.62;71.99;101886.28;5028492;28;47042;-67
2021/12/12 05:34:32;;;;;;;;;12.25;12.25;;;;;10.60;72.43;101907.59;5030020;28;45150;-65
2021/12/12 05:36:58;;;;;;;;;9.25;7.50;;;;;10.60;72.57;101904.03;5030046;28;45217;-67
2021/12/12 05:39:25;;;;;;;;;10.50;10.00;;;;;10.48;72.93;101878.56;5029341;28;44922;-69
2021/12/12 05:41:55;;;;;;;;;14.75;12.50;;;;;10.62;72.44;101903.22;5028748;28;46550;-66
2021/12/12 05:44:24;;;;;;;;;12.50;8.75;;;;;10.64;72.61;101911.31;5009527;28;45093;-64
2021/12/12 05:46:49;;;;;;;;;14.25;11.50;;;;;10.67;72.30;101911.44;5009178;28;45347;-69
2021/12/12 05:49:15;;;;;;;;;14.00;10.75;;;;;10.65;72.52;101910.47;5021329;28;45403;-68
2021/12/12 05:51:41;;;;;;;;;9.25;8.00;;;;;10.68;71.95;101907.94;5014691;28;45421;-68
2021/12/12 05:54:06;;;;;;;;;14.75;11.00;;;;;10.69;72.64;101912.44;5018827;28;45429;-67
2021/12/12 05:56:36;;;;;;;;;10.75;9.25;;;;;10.68;72.40;101918.63;5025565;28;45396;-68
2021/12/12 05:59:04;;;;;;;;;11.50;11.00;;;;;10.66;72.68;101917.66;5019297;28;45480;-67
2021/12/12 06:01:30;;;;;;;;;7.25;7.25;;;;;10.67;72.70;101917.72;5019841;28;45396;-67
2021/12/12 06:03:57;;;;;;;;;9.50;9.50;;;;;10.51;72.44;101891.16;5018151;28;45597;-67
2021/12/12 06:06:32;;;;;;;;;12.00;11.25;;;;;10.55;72.88;101894.88;5017776;28;45324;-67
2021/12/12 06:09:00;;;;;;;;;13.25;10.75;;;;;10.48;73.02;101883.91;5018421;28;45495;-66
2021/12/12 06:11:28;;;;;;;;;14.25;8.00;;;;;10.70;72.75;101922.28;5018963;28;45451;-69
2021/12/12 06:13:55;;;;;;;;;15.00;11.00;;;;;10.70;72.73;101912.50;5019079;28;45380;-67
2021/12/12 06:16:21;;;;;;;;;14.75;10.25;;;;;10.73;72.81;101933.13;5019007;28;45489;-69
2021/12/12 06:19:04;;;;;;;;;9.25;9.25;;;;;10.65;73.11;101929.19;5020524;28;45454;-66
2021/12/12 06:21:30;;;;;;;;;12.75;9.50;;;;;10.35;72.90;101875.28;5016865;28;46465;-67
2021/12/12 06:23:57;;;;;;;;;12.25;8.25;;;;;10.67;73.21;101930.16;5017216;28;45537;-69
2021/12/12 06:26:22;;;;;;;;;11.50;10.50;;;;;10.73;72.77;101940.22;5018450;28;45387;-67
2021/12/12 06:28:49;;;;;;;;;10.25;10.25;;;;;10.29;72.91;101866.09;5018333;28;45314;-68
2021/12/12 06:31:14;;;;;;;;;14.00;11.50;;;;;10.70;73.22;101949.00;5018000;28;47168;-67
2021/12/12 06:33:41;;;;;;;;;11.75;8.25;;;;;10.67;73.24;101943.53;5017623;28;45545;-68
2021/12/12 06:36:08;;;;;;;;;8.50;7.25;;;;;10.73;73.12;101950.94;5017645;28;45350;-69
2021/12/12 06:38:37;;;;;;;;;13.00;10.00;;;;;10.67;73.11;101946.19;5017364;28;45478;-68
2021/12/12 06:41:04;;;;;;;;;13.75;10.50;;;;;10.70;73.52;101954.34;5016830;28;46224;-68
2021/12/12 06:43:30;;;;;;;;;9.50;9.00;;;;;10.71;73.13;101966.91;5018434;28;45357;-67
2021/12/12 06:45:57;;;;;;;;;10.25;8.25;;;;;10.64;73.17;101954.06;5017829;28;45528;-68
2021/12/12 06:48:23;;;;;;;;;8.25;7.50;;;;;10.68;73.48;101959.63;5018406;28;45482;-69
2021/12/12 06:50:52;;;;;;;;;8.25;8.25;;;;;10.65;73.64;101964.84;5017920;28;45483;-66
2021/12/12 06:53:21;;;;;;;;;11.25;7.00;;;;;10.63;73.56;101965.63;5017274;28;45445;-67
2021/12/12 06:55:47;;;;;;;;;11.75;11.00;;;;;10.60;73.90;101965.47;5017065;28;45507;-67
2021/12/12 06:58:16;;;;;;;;;8.00;8.00;;;;;10.58;73.91;101975.19;5018530;28;45406;-69
2021/12/12 07:00:44;;;;;;;;;10.75;8.25;;;;;10.59;73.60;101979.69;5018563;28;45252;-68
2021/12/12 07:03:16;;;;;;;;;16.00;12.50;;;;;10.61;74.35;101980.66;5017272;28;45367;-68
2021/12/12 07:05:42;;;;;;;;;9.75;8.25;;;;;10.38;73.82;101937.78;5016148;28;45343;-68
2021/12/12 07:08:08;;;;;;;;;13.00;9.25;;;;;10.61;74.11;101986.94;5011693;28;45538;-68
2021/12/12 07:10:34;;;;;;;;;10.25;7.50;;;;;10.61;74.21;101988.66;4996854;28;45364;-68
2021/12/12 07:13:00;;;;;;;;;8.25;7.00;;;;;10.59;73.84;101985.97;4998818;28;45291;-69
2021/12/12 07:15:36;;;;;;;;;10.75;6.50;;;;;10.65;73.50;101985.31;4996427;28;45350;-68
2021/12/12 07:18:07;;;;;;;;;9.75;9.00;;;;;10.70;73.55;101990.00;5011505;28;45277;-68
2021/12/12 07:20:33;;;;;;;;;11.25;9.00;;;;;10.60;73.74;101977.06;5015960;28;45471;-68
2021/12/12 07:23:04;;;;;;;;;11.00;8.75;;;;;10.67;73.78;101979.22;5016445;28;45427;-67
2021/12/12 07:25:29;;;;;;;;;11.75;7.00;;;;;10.74;73.47;101990.16;5016499;28;45647;-68
2021/12/12 07:27:54;;;;;;;;;6.75;6.75;;;;;10.76;73.93;101988.50;5016714;28;45567;-65
2021/12/12 07:30:20;;;;;;;;;12.00;10.75;;;;;10.77;74.12;101999.22;5016654;28;45729;-67
2021/12/12 07:32:47;;;;;;;;;9.75;6.25;;;;;10.80;73.54;102004.72;5016504;28;45337;-69
2021/12/12 07:35:15;;;;;;;;;9.75;8.25;;;;;10.82;73.73;102008.41;5025146;28;45019;-69
2021/12/12 07:37:43;;;;;;;;;7.25;6.75;;;;;10.82;73.34;102002.13;5016232;28;45328;-69
2021/12/12 07:40:10;;;;;;;;;10.00;8.00;;;;;10.80;73.16;101998.47;5015849;28;46295;-67
2021/12/12 07:42:36;;;;;;;;;7.50;7.50;;;;;10.79;73.89;101999.28;5019372;28;45443;-68
2021/12/12 07:45:05;;;;;;;;;10.00;7.25;;;;;10.79;73.72;102012.66;5015963;28;45530;-68
2021/12/12 07:47:31;;;;;;;;;11.25;7.25;;;;;10.78;74.10;102011.75;5016307;28;45359;-67
2021/12/12 07:49:58;;;;;;;;;7.50;7.00;;;;;10.80;74.40;102020.75;5033733;28;46304;-67
2021/12/12 07:52:26;;;;;;;;;10.25;8.00;;;;;10.85;73.27;102019.19;5027147;28;44940;-67
2021/12/12 07:54:53;;;;;;;;;9.25;7.75;;;;;10.80;73.63;102006.47;5029480;28;45016;-64
2021/12/12 07:57:20;;;;;;;;;10.50;5.75;;;;;10.79;73.67;102005.59;5015795;28;45307;-69
2021/12/12 07:59:47;;;;;;;;;8.25;7.00;;;;;10.84;72.90;102014.72;5015408;28;45987;-67
2021/12/12 08:02:14;;;;;;;;;8.25;7.50;;;;;10.83;73.82;102020.91;5017346;28;45453;-68
2021/12/12 08:04:41;;;;;;;;;6.00;6.00;;;;;10.85;73.89;102023.66;5026354;28;45314;-68
2021/12/12 08:07:09;;;;;;;;;6.25;5.25;;;;;10.85;73.67;102021.88;5021550;28;45283;-67
2021/12/12 08:09:35;;;;;;;;;9.75;8.00;;;;;10.90;73.80;102031.88;5021845;28;45829;-68
2021/12/12 08:12:01;;;;;;;;;9.50;8.00;;;;;10.90;73.63;102019.41;5016741;28;45266;-67
2021/12/12 08:14:27;;;;;;;;;11.50;7.25;;;;;10.94;73.39;102024.06;5016812;28;45295;-69
2021/12/12 08:16:54;;;;;;;;;15.00;8.50;;;;;10.94;74.07;102032.09;5017774;28;45434;-68
2021/12/12 08:19:23;;;;;;;;;8.50;8.50;;;;;10.90;73.84;102035.47;5001938;28;45993;-68
2021/12/12 08:21:52;;;;;;;;;9.25;7.50;;;;;10.72;74.20;102007.88;5014432;28;45390;-69
2021/12/12 08:24:17;;;;;;;;;10.75;9.75;;;;;10.83;73.95;102022.66;5016439;28;45567;-69
2021/12/12 08:26:45;;;;;;;;;10.25;7.00;;;;;10.93;73.60;102034.69;5015555;28;45399;-69
2021/12/12 08:29:13;;;;;;;;;8.00;8.00;;;;;10.88;73.54;102021.13;5017847;28;46434;-68
2021/12/12 08:31:39;;;;;;;;;7.00;6.00;;;;;10.81;73.88;102014.56;5017815;28;45255;-68
2021/12/12 08:34:07;;;;;;;;;12.50;8.75;;;;;10.96;73.64;102033.06;5016604;28;45399;-69
2021/12/12 08:36:35;;;;;;;;;12.00;7.00;;;;;11.02;73.42;102041.38;5016481;28;45398;-69
2021/12/12 08:39:03;;;;;;;;;13.25;7.25;;;;;11.03;73.40;102035.16;5015268;28;45377;-67
2021/12/12 08:41:29;;;;;;;;;11.75;9.75;;;;;11.06;72.96;102037.97;5015353;28;45368;-69
2021/12/12 08:43:54;;;;;;;;;7.50;6.00;;;;;11.10;73.08;102046.16;5020580;28;45387;-69
2021/12/12 08:46:23;;;;;;;;;10.25;9.75;;;;;11.11;73.26;102037.28;5026379;28;45278;-68
2021/12/12 08:48:51;;;;;;;;;10.25;5.75;;;;;11.16;73.22;102054.47;5018888;28;46062;-67
2021/12/12 08:51:29;;;;;;;;;12.75;10.00;;;;;11.08;73.19;102035.38;5015578;28;45241;-70
2021/12/12 08:54:01;;;;;;;;;7.25;7.25;;;;;11.18;73.19;102051.00;5013426;28;45434;-67
2021/12/12 08:56:42;;;;;;;;;12.25;8.75;;;;;11.23;73.31;102052.09;5015043;28;45374;-69
2021/12/12 08:59:10;;;;;;;;;11.25;11.25;;;;;11.23;73.33;102062.81;5016124;28;46104;-68
2021/12/12 09:01:38;;;;;;;;;10.50;9.50;;;;;11.24;73.44;102051.28;5026087;28;45329;-69
2021/12/12 09:04:05;;;;;;;;;10.00;8.00;;;;;11.10;73.34;102028.34;5031559;28;45055;-67
2021/12/12 09:06:39;;;;;;;;;8.00;7.50;;;;;11.24;73.31;102063.75;5032208;28;45410;-68
2021/12/12 09:09:16;;;;;;;;;6.25;6.25;;;;;11.27;73.97;102068.28;5031873;28;45227;-69
2021/12/12 09:11:50;;;;;;;;;12.25;12.25;;;;;11.29;73.61;102067.53;5028104;28;45035;-68
2021/12/12 09:14:33;;;;;;;;;13.50;7.75;;;;;11.31;73.99;102076.53;5013460;28;45321;-68
2021/12/12 09:17:23;;;;;;;;;12.00;10.50;;;;;11.32;73.31;102075.69;5031147;28;45164;-69
2021/12/12 09:19:56;;;;;;;;;7.50;6.25;;;;;11.34;73.37;102082.03;5030653;28;45536;-68
2021/12/12 09:22:37;;;;;;;;;11.00;8.00;;;;;11.31;73.77;102070.28;5030768;28;45116;-70
2021/12/12 09:25:14;;;;;;;;;11.50;7.75;;;;;11.36;73.33;102079.44;5029141;28;45568;-68
2021/12/12 09:28:01;;;;;;;;;13.00;7.50;;;;;11.38;73.53;102084.00;5031272;28;45243;-72
2021/12/12 09:30:27;;;;;;;;;14.00;10.25;;;;;11.34;73.80;102062.41;5031417;28;46179;-70
2021/12/12 09:33:06;;;;;;;;;7.00;7.00;;;;;11.22;74.12;102050.28;5031363;28;45013;-74
2021/12/12 09:35:37;;;;;;;;;6.25;6.25;;;;;11.32;73.30;102059.66;5031367;28;45191;-67
2021/12/12 09:38:16;;;;;;;;;6.50;5.75;;;;;11.33;74.25;102053.44;5030990;28;44914;-68
2021/12/12 09:41:14;;;;;;;;;10.75;8.00;;;;;11.38;73.70;102061.66;5031520;28;45775;-66
2021/12/12 09:44:00;;;;;;;;;8.50;8.50;;;;;11.52;73.45;102079.25;5028905;28;45128;-66
2021/12/12 09:47:12;;;;;;;;;11.00;9.00;;;;;11.56;73.27;102077.63;5030876;28;45025;-67
2021/12/12 09:53:02;;;;;;;;;12.00;8.00;;;;;11.60;74.05;102075.16;5030444;28;45484;-67
2021/12/12 09:55:37;;;;;;;;;8.75;8.75;;;;;11.60;73.47;102063.53;5045148;28;45212;-67
2021/12/12 09:58:15;;;;;;;;;10.50;8.25;;;;;11.71;73.85;102072.03;5030027;28;45245;-65
2021/12/12 10:00:52;;;;;;;;;13.25;11.25;;;;;11.72;72.99;102064.06;5011803;28;45026;-66
2021/12/12 10:03:30;;;;;;;;;9.50;9.25;;;;;11.71;74.02;102058.63;5027222;28;46089;-65
2021/12/12 10:06:16;;;;;;;;;8.50;8.25;;;;;11.75;73.25;102074.00;5030971;28;45088;-67
2021/12/12 10:08:44;;;;;;;;;5.75;5.75;;;;;11.68;74.12;102074.56;5012826;28;45215;-67
2021/12/12 10:11:19;;;;;;;;;15.75;13.50;;;;;11.71;73.53;102077.38;5030701;28;45485;-67
2021/12/12 10:13:52;;;;;;;;;14.75;11.00;;;;;11.64;74.23;102065.50;5030758;28;45195;-64
2021/12/12 10:16:30;;;;;;;;;11.75;11.75;;;;;11.77;74.38;102074.97;5025924;28;45378;-64
2021/12/12 10:19:03;;;;;;;;;5.50;5.50;;;;;11.81;73.75;102068.88;5022502;28;46310;-63
2021/12/12 10:22:07;;;;;;;;;6.75;6.75;;;;;11.86;73.98;102069.09;5022144;28;45175;-68
2021/12/12 10:24:48;;;;;;;;;17.25;12.25;;;;;11.90;73.28;102068.38;5008747;28;45030;-65
2021/12/12 10:27:42;;;;;;;;;18.25;17.00;;;;;11.97;73.58;102078.53;5020247;28;45048;-64
2021/12/12 10:30:14;;;;;;;;;26.00;24.25;;;;;11.80;73.47;102034.94;5030329;28;45199;-69
2021/12/12 10:33:09;;;;;;;;;27.50;23.50;;;;;12.06;72.69;102077.97;5026216;28;45459;-68
2021/12/12 10:35:53;;;;;;;;;17.25;17.25;;;;;12.10;73.73;102077.28;5025165;28;45266;-68
2021/12/12 10:38:26;;;;;;;;;20.50;18.00;;;;;12.15;72.81;102070.34;5030116;28;45228;-62
2021/12/12 10:41:00;;;;;;;;;18.25;17.50;;;;;12.16;72.85;102078.44;5030056;28;45487;-68
2021/12/12 10:43:44;;;;;;;;;18.00;16.50;;;;;12.15;72.48;102073.00;5018592;28;46550;-66
2021/12/12 10:46:32;;;;;;;;;13.50;12.00;;;;;12.28;71.94;102086.06;5014003;28;45626;-66
2021/12/12 10:49:13;;;;;;;;;15.25;12.75;;;;;12.30;71.93;102076.31;5025235;28;45430;-65
2021/12/12 10:51:48;;;;;;;;;20.00;17.00;;;;;12.37;71.90;102074.78;5028424;28;45431;-64
2021/12/12 10:54:23;;;;;;;;;16.75;15.50;;;;;12.44;72.47;102073.28;5031983;28;45158;-67
2021/12/12 10:56:57;;;;;;;;;13.50;11.75;;;;;12.49;71.02;102074.41;5032596;28;45596;-66
2021/12/12 10:59:31;;;;;;;;;20.75;16.50;;;;;12.45;71.36;102078.69;5029557;28;45487;-67
2021/12/12 11:02:05;;;;;;;;;53.75;38.50;;;;;12.52;71.66;102075.44;5030271;28;45086;-69
2021/12/12 11:04:51;;;;;;;;;474.50;364.25;;;;;12.56;71.96;102079.13;5029409;28;45334;-64
2021/12/12 11:07:31;;;;;;;;;382.00;309.50;;;;;12.56;71.65;102071.09;5018458;28;45589;-68
2021/12/12 11:10:05;;;;;;;;;61.00;44.00;;;;;12.61;71.51;102080.22;5027874;28;45861;-65
2021/12/12 11:12:58;;;;;;;;;18.00;17.75;;;;;12.65;71.10;102079.47;5025420;28;44911;-67
2021/12/12 11:15:44;;;;;;;;;20.00;17.00;;;;;12.65;71.39;102074.13;5030214;28;44904;-62
2021/12/12 11:18:37;;;;;;;;;9.50;9.50;;;;;12.62;71.21;102076.72;5033048;28;45574;-69
2021/12/12 11:21:11;;;;;;;;;14.75;13.75;;;;;12.43;71.45;102050.91;5028903;28;44897;-69
2021/12/12 11:24:08;;;;;;;;;13.00;11.25;;;;;12.59;71.44;102081.00;5032411;28;44996;-64
2021/12/12 11:26:40;;;;;;;;;11.50;10.00;;;;;12.58;71.58;102080.09;5032436;28;44856;-69
2021/12/12 11:29:11;;;;;;;;;28.25;24.75;;;;;12.49;71.59;102071.72;5022186;28;45859;-72
2021/12/12 11:31:51;;;;;;;;;13.75;13.75;;;;;12.54;71.87;102083.53;5020903;28;45369;-66
2021/12/12 11:34:17;;;;;;;;;7.75;6.00;;;;;12.51;71.08;102081.63;5030289;28;45172;-71
2021/12/12 11:37:16;;;;;;;;;14.25;10.25;;;;;12.05;71.46;102010.09;5043775;28;45272;-65
2021/12/12 11:39:53;;;;;;;;;14.00;12.50;;;;;12.46;71.72;102075.19;5019067;28;47018;-73
2021/12/12 11:42:21;;;;;;;;;14.00;9.00;;;;;12.63;71.35;102083.88;5031031;28;45352;-70
2021/12/12 11:44:49;;;;;;;;;17.25;14.25;;;;;12.64;71.46;102080.34;5013906;28;45470;-69
2021/12/12 11:47:42;;;;;;;;;10.00;9.50;;;;;12.70;70.82;102080.59;5020564;28;45505;-73
2021/12/12 11:50:25;;;;;;;;;14.75;13.25;;;;;12.42;71.40;102035.69;5013228;28;46384;-71
2021/12/12 11:53:21;;;;;;;;;14.75;14.75;;;;;12.56;71.54;102051.44;5015003;28;45338;-74
2021/12/12 11:55:54;;;;;;;;;16.00;9.00;;;;;12.73;71.77;102079.78;5015125;28;45422;-72
2021/12/12 11:58:32;;;;;;;;;17.50;15.25;;;;;12.75;71.08;102079.84;5015574;28;45597;-75